Česky Dansk Deutsch English Español Suomi Français Magyar Italiano Nederlands norsk Polski Português svenska Türkçe

 

Het Weer

Tampere / Pirkkala (Finland)

02:20, 2 augustus 2016 (GMT)

NWNNE
WE
SWSSE
Home            
Tampere / Pirkkala Halli Pori Turku Ahtari Helsinki-Vantaa Seinajoki-Ilmajok Ilmajoki Helsinki-Malmi Jyvaskyla Utti Kauhava Mikkeli Vaasa Viitasaari Tallinn Varkaus Mariehamn / Aland Island Lappeenranta Kruunupyy Kardla Kuopio Savonlinna

Om een weerknop op uw website of weblog te plaatsen, copieer onderstaande code en plak die in uw pagina. In het eerste vakje staat HTML-code, in het tweede vakje UBB-code.


Add to Google

Details

Wind speed:2 bf, 5 kn, 2.6 m/s, 5.8 miles/h, 9.3 km/h
Wind direction:SSE, 150°
Widzialność pozioma:Więcej niż 10000 m, 10 km, 32800 ft, 6.2 miles
Clouds:CAVOC
Temperatura:12°C, 54°F
Punkt rosy:11°C, 52°F
Ciśnienie QHN:1007 hPa, 755.3 mmHg, 29.74 inHg, 0.994 atm
Wilgotność względna:93.6 %
METAR:EFTP 020220Z AUTO 15005KT CAVOK 12/11 Q1007

Snelkoppelingen

Actuele weersinformatie van de hele wereld. Voeg locaties toe met het plus (+) symbool. Deze snelkoppelingen kunnen worden toegevoegd aan Google.

Lid van de Technetium groep

website free tracking
StatCounter NetStat W3C Validator

23-10-2020 01:32:45
astro.technetium.be money.technetium.be phote.technetium.be tafeltennistafel.technetium.be www.ligfiets.net